sensor_id;sensor_type;location;lat;lon;timestamp;P1;durP1;ratioP1;P2;durP2;ratioP2
3068;SDS011;1545;51.728;8.796;2023-09-19T00:00:37;6.13;;;3.60;;
3068;SDS011;1545;51.728;8.796;2023-09-19T00:03:03;8.83;;;4.07;;
3068;SDS011;1545;51.728;8.796;2023-09-19T00:05:34;6.73;;;4.30;;
3068;SDS011;1545;51.728;8.796;2023-09-19T00:08:01;6.23;;;3.90;;
3068;SDS011;1545;51.728;8.796;2023-09-19T00:10:31;6.77;;;3.87;;
3068;SDS011;1545;51.728;8.796;2023-09-19T00:13:00;12.27;;;4.40;;
3068;SDS011;1545;51.728;8.796;2023-09-19T00:15:30;11.07;;;4.73;;
3068;SDS011;1545;51.728;8.796;2023-09-19T00:18:03;8.63;;;4.67;;
3068;SDS011;1545;51.728;8.796;2023-09-19T00:20:31;11.97;;;5.30;;
3068;SDS011;1545;51.728;8.796;2023-09-19T00:22:57;13.00;;;4.47;;
3068;SDS011;1545;51.728;8.796;2023-09-19T00:25:30;7.53;;;4.43;;
3068;SDS011;1545;51.728;8.796;2023-09-19T00:27:57;8.70;;;5.30;;
3068;SDS011;1545;51.728;8.796;2023-09-19T00:30:23;15.07;;;5.27;;
3068;SDS011;1545;51.728;8.796;2023-09-19T00:32:49;15.47;;;5.33;;
3068;SDS011;1545;51.728;8.796;2023-09-19T00:35:19;7.77;;;5.23;;
3068;SDS011;1545;51.728;8.796;2023-09-19T00:37:52;12.17;;;5.13;;
3068;SDS011;1545;51.728;8.796;2023-09-19T00:40:18;11.53;;;5.20;;
3068;SDS011;1545;51.728;8.796;2023-09-19T00:42:46;9.30;;;5.03;;
3068;SDS011;1545;51.728;8.796;2023-09-19T00:45:13;12.80;;;5.37;;
3068;SDS011;1545;51.728;8.796;2023-09-19T00:47:44;14.90;;;5.20;;
3068;SDS011;1545;51.728;8.796;2023-09-19T00:50:11;11.43;;;5.60;;
3068;SDS011;1545;51.728;8.796;2023-09-19T00:52:39;11.70;;;5.93;;
3068;SDS011;1545;51.728;8.796;2023-09-19T00:55:07;11.80;;;5.90;;
3068;SDS011;1545;51.728;8.796;2023-09-19T00:57:34;10.27;;;5.30;;
3068;SDS011;1545;51.728;8.796;2023-09-19T01:00:01;10.53;;;5.60;;
3068;SDS011;1545;51.728;8.796;2023-09-19T01:02:32;8.00;;;5.30;;
3068;SDS011;1545;51.728;8.796;2023-09-19T01:04:58;9.37;;;4.93;;
3068;SDS011;1545;51.728;8.796;2023-09-19T01:07:29;18.53;;;5.40;;
3068;SDS011;1545;51.728;8.796;2023-09-19T01:09:57;11.47;;;5.73;;
3068;SDS011;1545;51.728;8.796;2023-09-19T01:12:30;12.93;;;5.53;;
3068;SDS011;1545;51.728;8.796;2023-09-19T01:15:11;11.53;;;5.70;;
3068;SDS011;1545;51.728;8.796;2023-09-19T01:28:44;11.27;;;5.80;;
3068;SDS011;1545;51.728;8.796;2023-09-19T01:31:22;12.80;;;5.33;;
3068;SDS011;1545;51.728;8.796;2023-09-19T01:33:59;8.37;;;5.40;;
3068;SDS011;1545;51.728;8.796;2023-09-19T01:36:26;17.60;;;6.10;;
3068;SDS011;1545;51.728;8.796;2023-09-19T01:38:54;11.47;;;6.00;;
3068;SDS011;1545;51.728;8.796;2023-09-19T01:41:29;8.93;;;5.83;;
3068;SDS011;1545;51.728;8.796;2023-09-19T01:44:03;12.70;;;6.40;;
3068;SDS011;1545;51.728;8.796;2023-09-19T01:46:35;10.17;;;6.20;;
3068;SDS011;1545;51.728;8.796;2023-09-19T01:49:10;11.73;;;7.00;;
3068;SDS011;1545;51.728;8.796;2023-09-19T01:54:26;14.13;;;5.97;;
3068;SDS011;1545;51.728;8.796;2023-09-19T01:57:03;14.23;;;6.40;;
3068;SDS011;1545;51.728;8.796;2023-09-19T01:59:42;12.53;;;5.77;;
3068;SDS011;1545;51.728;8.796;2023-09-19T02:02:22;12.63;;;5.77;;
3068;SDS011;1545;51.728;8.796;2023-09-19T02:04:48;11.60;;;5.73;;
3068;SDS011;1545;51.728;8.796;2023-09-19T02:07:15;7.23;;;4.57;;
3068;SDS011;1545;51.728;8.796;2023-09-19T02:09:41;12.67;;;4.90;;
3068;SDS011;1545;51.728;8.796;2023-09-19T02:12:08;11.97;;;4.70;;
3068;SDS011;1545;51.728;8.796;2023-09-19T02:14:34;14.03;;;5.00;;
3068;SDS011;1545;51.728;8.796;2023-09-19T02:17:01;18.43;;;5.90;;
3068;SDS011;1545;51.728;8.796;2023-09-19T02:19:36;16.93;;;4.97;;
3068;SDS011;1545;51.728;8.796;2023-09-19T02:22:03;8.50;;;4.37;;
3068;SDS011;1545;51.728;8.796;2023-09-19T02:24:32;14.43;;;5.20;;
3068;SDS011;1545;51.728;8.796;2023-09-19T02:26:58;9.67;;;4.20;;
3068;SDS011;1545;51.728;8.796;2023-09-19T02:29:25;11.93;;;4.93;;
3068;SDS011;1545;51.728;8.796;2023-09-19T02:31:51;11.00;;;4.40;;
3068;SDS011;1545;51.728;8.796;2023-09-19T02:34:18;8.23;;;4.40;;
3068;SDS011;1545;51.728;8.796;2023-09-19T02:36:44;13.13;;;4.43;;
3068;SDS011;1545;51.728;8.796;2023-09-19T02:39:10;9.50;;;4.07;;
3068;SDS011;1545;51.728;8.796;2023-09-19T02:41:36;24.03;;;4.73;;
3068;SDS011;1545;51.728;8.796;2023-09-19T02:44:02;16.03;;;4.27;;
3068;SDS011;1545;51.728;8.796;2023-09-19T02:46:27;66.17;;;6.23;;
3068;SDS011;1545;51.728;8.796;2023-09-19T02:48:53;13.50;;;5.10;;
3068;SDS011;1545;51.728;8.796;2023-09-19T02:51:19;14.17;;;4.57;;
3068;SDS011;1545;51.728;8.796;2023-09-19T02:53:45;14.87;;;4.00;;
3068;SDS011;1545;51.728;8.796;2023-09-19T02:56:12;12.60;;;4.53;;
3068;SDS011;1545;51.728;8.796;2023-09-19T02:58:38;10.80;;;3.97;;
3068;SDS011;1545;51.728;8.796;2023-09-19T03:01:08;18.33;;;5.27;;
3068;SDS011;1545;51.728;8.796;2023-09-19T03:03:34;13.93;;;4.57;;
3068;SDS011;1545;51.728;8.796;2023-09-19T03:06:02;19.77;;;5.03;;
3068;SDS011;1545;51.728;8.796;2023-09-19T03:08:29;15.03;;;4.93;;
3068;SDS011;1545;51.728;8.796;2023-09-19T03:10:54;14.93;;;5.00;;
3068;SDS011;1545;51.728;8.796;2023-09-19T03:13:20;13.13;;;4.67;;
3068;SDS011;1545;51.728;8.796;2023-09-19T03:15:45;12.93;;;4.57;;
3068;SDS011;1545;51.728;8.796;2023-09-19T03:18:15;15.03;;;4.90;;
3068;SDS011;1545;51.728;8.796;2023-09-19T03:20:40;20.67;;;5.77;;
3068;SDS011;1545;51.728;8.796;2023-09-19T03:23:06;24.03;;;4.97;;
3068;SDS011;1545;51.728;8.796;2023-09-19T03:25:36;18.43;;;5.17;;
3068;SDS011;1545;51.728;8.796;2023-09-19T03:28:02;12.50;;;4.63;;
3068;SDS011;1545;51.728;8.796;2023-09-19T03:30:30;26.40;;;4.83;;
3068;SDS011;1545;51.728;8.796;2023-09-19T03:32:57;15.33;;;4.67;;
3068;SDS011;1545;51.728;8.796;2023-09-19T03:35:23;15.03;;;4.60;;
3068;SDS011;1545;51.728;8.796;2023-09-19T03:37:48;16.07;;;5.67;;
3068;SDS011;1545;51.728;8.796;2023-09-19T03:40:14;18.13;;;5.33;;
3068;SDS011;1545;51.728;8.796;2023-09-19T03:42:41;17.17;;;4.87;;
3068;SDS011;1545;51.728;8.796;2023-09-19T03:45:07;10.47;;;4.63;;
3068;SDS011;1545;51.728;8.796;2023-09-19T03:47:37;20.20;;;5.30;;
3068;SDS011;1545;51.728;8.796;2023-09-19T03:50:04;12.60;;;4.43;;
3068;SDS011;1545;51.728;8.796;2023-09-19T03:52:30;15.07;;;5.00;;
3068;SDS011;1545;51.728;8.796;2023-09-19T03:54:55;13.77;;;4.70;;
3068;SDS011;1545;51.728;8.796;2023-09-19T03:57:21;17.57;;;4.60;;
3068;SDS011;1545;51.728;8.796;2023-09-19T03:59:46;28.07;;;5.50;;
3068;SDS011;1545;51.728;8.796;2023-09-19T04:02:12;12.03;;;4.67;;
3068;SDS011;1545;51.728;8.796;2023-09-19T04:04:47;20.63;;;5.37;;
3068;SDS011;1545;51.728;8.796;2023-09-19T04:07:13;18.37;;;4.90;;
3068;SDS011;1545;51.728;8.796;2023-09-19T04:09:38;22.00;;;5.40;;
3068;SDS011;1545;51.728;8.796;2023-09-19T04:12:04;18.70;;;4.60;;
3068;SDS011;1545;51.728;8.796;2023-09-19T04:14:30;21.70;;;5.70;;
3068;SDS011;1545;51.728;8.796;2023-09-19T04:16:56;17.47;;;4.80;;
3068;SDS011;1545;51.728;8.796;2023-09-19T04:19:21;13.47;;;4.57;;
3068;SDS011;1545;51.728;8.796;2023-09-19T04:21:47;16.00;;;3.80;;
3068;SDS011;1545;51.728;8.796;2023-09-19T04:24:12;21.57;;;5.10;;
3068;SDS011;1545;51.728;8.796;2023-09-19T04:26:38;15.93;;;4.90;;
3068;SDS011;1545;51.728;8.796;2023-09-19T04:29:04;14.40;;;4.13;;
3068;SDS011;1545;51.728;8.796;2023-09-19T04:31:31;18.03;;;4.67;;
3068;SDS011;1545;51.728;8.796;2023-09-19T04:33:56;19.83;;;4.63;;
3068;SDS011;1545;51.728;8.796;2023-09-19T04:36:24;23.50;;;4.53;;
3068;SDS011;1545;51.728;8.796;2023-09-19T04:38:49;12.77;;;4.47;;
3068;SDS011;1545;51.728;8.796;2023-09-19T04:41:15;12.30;;;4.00;;
3068;SDS011;1545;51.728;8.796;2023-09-19T04:43:40;64.17;;;5.23;;
3068;SDS011;1545;51.728;8.796;2023-09-19T04:46:06;19.03;;;4.60;;
3068;SDS011;1545;51.728;8.796;2023-09-19T04:48:32;24.47;;;4.37;;
3068;SDS011;1545;51.728;8.796;2023-09-19T04:50:59;17.67;;;4.70;;
3068;SDS011;1545;51.728;8.796;2023-09-19T04:53:25;17.47;;;4.63;;
3068;SDS011;1545;51.728;8.796;2023-09-19T04:55:51;24.77;;;5.03;;
3068;SDS011;1545;51.728;8.796;2023-09-19T04:58:20;23.73;;;4.70;;
3068;SDS011;1545;51.728;8.796;2023-09-19T05:00:46;16.17;;;4.20;;
3068;SDS011;1545;51.728;8.796;2023-09-19T05:03:12;17.83;;;4.63;;
3068;SDS011;1545;51.728;8.796;2023-09-19T05:05:37;15.60;;;4.57;;
3068;SDS011;1545;51.728;8.796;2023-09-19T05:08:04;19.03;;;5.23;;
3068;SDS011;1545;51.728;8.796;2023-09-19T05:10:30;21.20;;;4.93;;
3068;SDS011;1545;51.728;8.796;2023-09-19T05:12:57;19.57;;;4.63;;
3068;SDS011;1545;51.728;8.796;2023-09-19T05:15:22;10.93;;;4.37;;
3068;SDS011;1545;51.728;8.796;2023-09-19T05:17:49;17.93;;;4.80;;
3068;SDS011;1545;51.728;8.796;2023-09-19T05:20:16;27.77;;;5.00;;
3068;SDS011;1545;51.728;8.796;2023-09-19T05:22:42;22.50;;;4.87;;
3068;SDS011;1545;51.728;8.796;2023-09-19T05:25:08;22.80;;;4.43;;
3068;SDS011;1545;51.728;8.796;2023-09-19T05:27:34;18.40;;;4.47;;
3068;SDS011;1545;51.728;8.796;2023-09-19T05:30:00;16.07;;;4.40;;
3068;SDS011;1545;51.728;8.796;2023-09-19T05:32:26;20.30;;;4.40;;
3068;SDS011;1545;51.728;8.796;2023-09-19T05:34:51;15.83;;;4.57;;
3068;SDS011;1545;51.728;8.796;2023-09-19T05:37:18;16.30;;;4.87;;
3068;SDS011;1545;51.728;8.796;2023-09-19T05:39:44;13.00;;;4.50;;
3068;SDS011;1545;51.728;8.796;2023-09-19T05:42:10;22.33;;;4.77;;
3068;SDS011;1545;51.728;8.796;2023-09-19T05:44:35;22.40;;;4.83;;
3068;SDS011;1545;51.728;8.796;2023-09-19T05:47:02;18.40;;;4.23;;
3068;SDS011;1545;51.728;8.796;2023-09-19T05:49:28;23.07;;;5.10;;
3068;SDS011;1545;51.728;8.796;2023-09-19T05:51:53;24.60;;;4.73;;
3068;SDS011;1545;51.728;8.796;2023-09-19T05:54:21;19.40;;;4.83;;
3068;SDS011;1545;51.728;8.796;2023-09-19T05:56:47;23.43;;;4.43;;
3068;SDS011;1545;51.728;8.796;2023-09-19T05:59:12;16.37;;;4.63;;
3068;SDS011;1545;51.728;8.796;2023-09-19T06:01:42;24.07;;;5.40;;
3068;SDS011;1545;51.728;8.796;2023-09-19T06:04:07;19.27;;;4.07;;
3068;SDS011;1545;51.728;8.796;2023-09-19T06:06:33;14.87;;;4.53;;
3068;SDS011;1545;51.728;8.796;2023-09-19T06:09:01;18.43;;;5.00;;
3068;SDS011;1545;51.728;8.796;2023-09-19T06:11:27;19.17;;;4.07;;
3068;SDS011;1545;51.728;8.796;2023-09-19T06:13:54;21.03;;;4.03;;
3068;SDS011;1545;51.728;8.796;2023-09-19T06:16:19;16.27;;;4.00;;
3068;SDS011;1545;51.728;8.796;2023-09-19T06:18:45;14.97;;;4.13;;
3068;SDS011;1545;51.728;8.796;2023-09-19T06:21:10;13.43;;;4.50;;
3068;SDS011;1545;51.728;8.796;2023-09-19T06:23:37;14.43;;;3.83;;
3068;SDS011;1545;51.728;8.796;2023-09-19T06:26:02;22.10;;;4.60;;
3068;SDS011;1545;51.728;8.796;2023-09-19T06:28:31;18.40;;;4.20;;
3068;SDS011;1545;51.728;8.796;2023-09-19T06:30:58;22.90;;;4.53;;
3068;SDS011;1545;51.728;8.796;2023-09-19T06:33:24;15.10;;;4.30;;
3068;SDS011;1545;51.728;8.796;2023-09-19T06:35:50;22.80;;;4.40;;
3068;SDS011;1545;51.728;8.796;2023-09-19T06:38:18;13.80;;;4.17;;
3068;SDS011;1545;51.728;8.796;2023-09-19T06:40:44;17.87;;;4.43;;
3068;SDS011;1545;51.728;8.796;2023-09-19T06:43:10;15.33;;;3.90;;
3068;SDS011;1545;51.728;8.796;2023-09-19T06:45:36;19.00;;;4.27;;
3068;SDS011;1545;51.728;8.796;2023-09-19T06:48:01;16.47;;;3.60;;
3068;SDS011;1545;51.728;8.796;2023-09-19T06:50:28;16.30;;;3.93;;
3068;SDS011;1545;51.728;8.796;2023-09-19T06:52:56;16.80;;;4.07;;
3068;SDS011;1545;51.728;8.796;2023-09-19T06:55:24;12.80;;;4.07;;
3068;SDS011;1545;51.728;8.796;2023-09-19T06:57:52;14.07;;;4.07;;
3068;SDS011;1545;51.728;8.796;2023-09-19T07:00:21;15.03;;;3.57;;
3068;SDS011;1545;51.728;8.796;2023-09-19T07:02:55;11.77;;;3.43;;
3068;SDS011;1545;51.728;8.796;2023-09-19T07:05:26;13.77;;;3.67;;
3068;SDS011;1545;51.728;8.796;2023-09-19T07:08:00;14.93;;;3.77;;
3068;SDS011;1545;51.728;8.796;2023-09-19T07:10:26;20.03;;;4.00;;
3068;SDS011;1545;51.728;8.796;2023-09-19T07:15:23;17.23;;;4.03;;
3068;SDS011;1545;51.728;8.796;2023-09-19T07:17:50;19.30;;;4.17;;
3068;SDS011;1545;51.728;8.796;2023-09-19T07:20:19;14.43;;;3.73;;
3068;SDS011;1545;51.728;8.796;2023-09-19T07:22:45;12.07;;;4.00;;
3068;SDS011;1545;51.728;8.796;2023-09-19T07:25:13;15.17;;;3.93;;
3068;SDS011;1545;51.728;8.796;2023-09-19T07:27:42;12.57;;;3.50;;
3068;SDS011;1545;51.728;8.796;2023-09-19T07:30:08;14.90;;;3.87;;
3068;SDS011;1545;51.728;8.796;2023-09-19T07:32:35;16.97;;;3.97;;
3068;SDS011;1545;51.728;8.796;2023-09-19T07:35:04;13.90;;;3.60;;
3068;SDS011;1545;51.728;8.796;2023-09-19T07:37:33;14.23;;;4.07;;
3068;SDS011;1545;51.728;8.796;2023-09-19T07:39:59;25.17;;;4.40;;
3068;SDS011;1545;51.728;8.796;2023-09-19T07:42:26;16.07;;;4.10;;
3068;SDS011;1545;51.728;8.796;2023-09-19T07:44:52;12.53;;;3.63;;
3068;SDS011;1545;51.728;8.796;2023-09-19T07:47:19;16.33;;;3.67;;
3068;SDS011;1545;51.728;8.796;2023-09-19T07:49:49;17.17;;;4.40;;
3068;SDS011;1545;51.728;8.796;2023-09-19T07:52:15;16.70;;;3.90;;
3068;SDS011;1545;51.728;8.796;2023-09-19T07:54:41;12.40;;;3.87;;
3068;SDS011;1545;51.728;8.796;2023-09-19T07:57:09;13.73;;;3.50;;
3068;SDS011;1545;51.728;8.796;2023-09-19T07:59:34;16.17;;;4.40;;
3068;SDS011;1545;51.728;8.796;2023-09-19T08:02:01;21.00;;;4.30;;
3068;SDS011;1545;51.728;8.796;2023-09-19T08:04:29;13.03;;;3.60;;
3068;SDS011;1545;51.728;8.796;2023-09-19T08:06:58;14.27;;;3.60;;
3068;SDS011;1545;51.728;8.796;2023-09-19T08:09:24;18.00;;;4.30;;
3068;SDS011;1545;51.728;8.796;2023-09-19T08:11:49;10.67;;;3.47;;
3068;SDS011;1545;51.728;8.796;2023-09-19T08:14:15;16.80;;;4.00;;
3068;SDS011;1545;51.728;8.796;2023-09-19T08:16:41;11.97;;;3.77;;
3068;SDS011;1545;51.728;8.796;2023-09-19T08:19:08;14.73;;;3.53;;
3068;SDS011;1545;51.728;8.796;2023-09-19T08:21:35;10.97;;;3.57;;
3068;SDS011;1545;51.728;8.796;2023-09-19T08:24:01;12.60;;;4.20;;
3068;SDS011;1545;51.728;8.796;2023-09-19T08:26:30;13.77;;;3.67;;
3068;SDS011;1545;51.728;8.796;2023-09-19T08:28:56;19.73;;;4.03;;
3068;SDS011;1545;51.728;8.796;2023-09-19T08:31:22;15.27;;;4.57;;
3068;SDS011;1545;51.728;8.796;2023-09-19T08:33:48;14.30;;;3.77;;
3068;SDS011;1545;51.728;8.796;2023-09-19T08:36:16;18.37;;;3.73;;
3068;SDS011;1545;51.728;8.796;2023-09-19T08:38:41;11.53;;;3.50;;
3068;SDS011;1545;51.728;8.796;2023-09-19T08:41:07;18.67;;;3.73;;
3068;SDS011;1545;51.728;8.796;2023-09-19T08:43:33;14.77;;;3.60;;
3068;SDS011;1545;51.728;8.796;2023-09-19T08:46:12;14.07;;;3.43;;
3068;SDS011;1545;51.728;8.796;2023-09-19T08:48:49;11.23;;;3.43;;
3068;SDS011;1545;51.728;8.796;2023-09-19T08:51:27;17.63;;;4.00;;
3068;SDS011;1545;51.728;8.796;2023-09-19T08:54:21;19.97;;;4.47;;
3068;SDS011;1545;51.728;8.796;2023-09-19T08:56:51;20.33;;;4.40;;
3068;SDS011;1545;51.728;8.796;2023-09-19T08:59:21;14.90;;;4.30;;
3068;SDS011;1545;51.728;8.796;2023-09-19T09:01:51;16.00;;;4.27;;
3068;SDS011;1545;51.728;8.796;2023-09-19T09:04:18;15.63;;;4.53;;
3068;SDS011;1545;51.728;8.796;2023-09-19T09:06:45;12.67;;;4.23;;
3068;SDS011;1545;51.728;8.796;2023-09-19T09:09:15;19.57;;;5.50;;
3068;SDS011;1545;51.728;8.796;2023-09-19T09:11:41;18.93;;;4.70;;
3068;SDS011;1545;51.728;8.796;2023-09-19T09:14:07;17.67;;;4.63;;
3068;SDS011;1545;51.728;8.796;2023-09-19T09:16:33;17.20;;;4.63;;
3068;SDS011;1545;51.728;8.796;2023-09-19T09:18:59;17.37;;;4.63;;
3068;SDS011;1545;51.728;8.796;2023-09-19T09:21:25;17.17;;;4.87;;
3068;SDS011;1545;51.728;8.796;2023-09-19T09:23:51;18.20;;;4.27;;
3068;SDS011;1545;51.728;8.796;2023-09-19T09:26:30;24.43;;;4.70;;
3068;SDS011;1545;51.728;8.796;2023-09-19T09:29:03;20.23;;;4.73;;
3068;SDS011;1545;51.728;8.796;2023-09-19T09:31:29;19.77;;;4.57;;
3068;SDS011;1545;51.728;8.796;2023-09-19T09:33:55;12.43;;;4.43;;
3068;SDS011;1545;51.728;8.796;2023-09-19T09:36:38;15.60;;;4.30;;
3068;SDS011;1545;51.728;8.796;2023-09-19T09:39:06;21.63;;;4.97;;
3068;SDS011;1545;51.728;8.796;2023-09-19T09:41:43;20.83;;;5.03;;
3068;SDS011;1545;51.728;8.796;2023-09-19T09:44:15;25.37;;;5.10;;
3068;SDS011;1545;51.728;8.796;2023-09-19T09:46:45;24.97;;;5.03;;
3068;SDS011;1545;51.728;8.796;2023-09-19T09:49:23;17.07;;;4.20;;
3068;SDS011;1545;51.728;8.796;2023-09-19T09:54:32;20.30;;;4.90;;
3068;SDS011;1545;51.728;8.796;2023-09-19T09:57:01;13.17;;;4.07;;
3068;SDS011;1545;51.728;8.796;2023-09-19T09:59:53;19.63;;;4.33;;
3068;SDS011;1545;51.728;8.796;2023-09-19T10:02:27;13.60;;;4.03;;
3068;SDS011;1545;51.728;8.796;2023-09-19T10:05:15;27.50;;;3.83;;
3068;SDS011;1545;51.728;8.796;2023-09-19T10:07:45;15.43;;;4.27;;
3068;SDS011;1545;51.728;8.796;2023-09-19T10:10:30;20.90;;;4.03;;
3068;SDS011;1545;51.728;8.796;2023-09-19T10:13:19;18.17;;;4.70;;
3068;SDS011;1545;51.728;8.796;2023-09-19T10:15:48;19.63;;;4.80;;
3068;SDS011;1545;51.728;8.796;2023-09-19T10:18:23;16.37;;;4.50;;
3068;SDS011;1545;51.728;8.796;2023-09-19T10:20:50;16.53;;;4.60;;
3068;SDS011;1545;51.728;8.796;2023-09-19T10:23:17;11.97;;;3.87;;
3068;SDS011;1545;51.728;8.796;2023-09-19T10:25:48;11.97;;;4.20;;
3068;SDS011;1545;51.728;8.796;2023-09-19T10:28:15;11.53;;;4.63;;
3068;SDS011;1545;51.728;8.796;2023-09-19T10:30:47;16.70;;;5.10;;
3068;SDS011;1545;51.728;8.796;2023-09-19T10:33:15;16.07;;;4.60;;
3068;SDS011;1545;51.728;8.796;2023-09-19T10:35:43;12.97;;;4.43;;
3068;SDS011;1545;51.728;8.796;2023-09-19T10:38:10;14.97;;;4.27;;
3068;SDS011;1545;51.728;8.796;2023-09-19T10:40:37;15.57;;;4.23;;
3068;SDS011;1545;51.728;8.796;2023-09-19T10:43:08;14.97;;;4.43;;
3068;SDS011;1545;51.728;8.796;2023-09-19T10:45:44;11.07;;;4.17;;
3068;SDS011;1545;51.728;8.796;2023-09-19T10:48:11;15.77;;;4.77;;
3068;SDS011;1545;51.728;8.796;2023-09-19T10:50:44;17.00;;;4.10;;
3068;SDS011;1545;51.728;8.796;2023-09-19T10:53:17;19.47;;;4.40;;
3068;SDS011;1545;51.728;8.796;2023-09-19T10:58:42;14.17;;;4.53;;
3068;SDS011;1545;51.728;8.796;2023-09-19T11:01:10;12.63;;;4.03;;
3068;SDS011;1545;51.728;8.796;2023-09-19T11:03:43;12.10;;;4.50;;
3068;SDS011;1545;51.728;8.796;2023-09-19T11:06:13;12.73;;;4.67;;
3068;SDS011;1545;51.728;8.796;2023-09-19T11:09:02;15.23;;;4.03;;
3068;SDS011;1545;51.728;8.796;2023-09-19T11:20:15;14.97;;;4.33;;
3068;SDS011;1545;51.728;8.796;2023-09-19T11:30:50;12.60;;;5.17;;
3068;SDS011;1545;51.728;8.796;2023-09-19T11:33:24;15.17;;;4.93;;
3068;SDS011;1545;51.728;8.796;2023-09-19T11:35:58;14.93;;;4.03;;
3068;SDS011;1545;51.728;8.796;2023-09-19T11:43:51;16.10;;;4.57;;
3068;SDS011;1545;51.728;8.796;2023-09-19T11:46:19;19.57;;;4.63;;
3068;SDS011;1545;51.728;8.796;2023-09-19T11:48:49;16.67;;;4.30;;
3068;SDS011;1545;51.728;8.796;2023-09-19T11:51:19;17.30;;;4.73;;
3068;SDS011;1545;51.728;8.796;2023-09-19T11:53:56;12.63;;;4.30;;
3068;SDS011;1545;51.728;8.796;2023-09-19T11:56:25;16.77;;;4.67;;
3068;SDS011;1545;51.728;8.796;2023-09-19T11:58:53;14.27;;;4.47;;
3068;SDS011;1545;51.728;8.796;2023-09-19T12:03:55;9.93;;;4.13;;
3068;SDS011;1545;51.728;8.796;2023-09-19T12:06:23;16.23;;;4.20;;
3068;SDS011;1545;51.728;8.796;2023-09-19T12:08:49;11.93;;;4.60;;
3068;SDS011;1545;51.728;8.796;2023-09-19T12:11:18;15.63;;;4.57;;
3068;SDS011;1545;51.728;8.796;2023-09-19T12:13:46;13.87;;;4.60;;
3068;SDS011;1545;51.728;8.796;2023-09-19T12:16:17;12.33;;;3.93;;
3068;SDS011;1545;51.728;8.796;2023-09-19T12:18:47;13.83;;;3.93;;
3068;SDS011;1545;51.728;8.796;2023-09-19T12:26:23;14.10;;;4.20;;
3068;SDS011;1545;51.728;8.796;2023-09-19T12:28:49;8.80;;;3.60;;
3068;SDS011;1545;51.728;8.796;2023-09-19T12:31:17;12.97;;;4.37;;
3068;SDS011;1545;51.728;8.796;2023-09-19T12:33:44;13.80;;;4.03;;
3068;SDS011;1545;51.728;8.796;2023-09-19T12:36:22;13.43;;;3.90;;
3068;SDS011;1545;51.728;8.796;2023-09-19T12:38:54;10.40;;;3.60;;
3068;SDS011;1545;51.728;8.796;2023-09-19T12:41:21;8.90;;;3.73;;
3068;SDS011;1545;51.728;8.796;2023-09-19T12:43:47;12.20;;;4.20;;
3068;SDS011;1545;51.728;8.796;2023-09-19T12:46:13;20.33;;;4.00;;
3068;SDS011;1545;51.728;8.796;2023-09-19T12:48:40;11.70;;;4.03;;
3068;SDS011;1545;51.728;8.796;2023-09-19T12:51:12;11.10;;;3.97;;
3068;SDS011;1545;51.728;8.796;2023-09-19T12:53:38;12.27;;;3.70;;
3068;SDS011;1545;51.728;8.796;2023-09-19T12:56:09;15.00;;;4.17;;
3068;SDS011;1545;51.728;8.796;2023-09-19T12:58:54;16.00;;;4.23;;
3068;SDS011;1545;51.728;8.796;2023-09-19T13:01:21;16.33;;;3.97;;
3068;SDS011;1545;51.728;8.796;2023-09-19T13:06:39;12.70;;;3.73;;
3068;SDS011;1545;51.728;8.796;2023-09-19T13:09:08;12.03;;;4.20;;
3068;SDS011;1545;51.728;8.796;2023-09-19T13:11:35;14.07;;;3.87;;
3068;SDS011;1545;51.728;8.796;2023-09-19T13:14:23;13.77;;;3.40;;
3068;SDS011;1545;51.728;8.796;2023-09-19T13:17:03;12.13;;;3.87;;
3068;SDS011;1545;51.728;8.796;2023-09-19T13:19:40;8.70;;;3.37;;
3068;SDS011;1545;51.728;8.796;2023-09-19T13:25:01;13.37;;;3.60;;
3068;SDS011;1545;51.728;8.796;2023-09-19T13:27:28;11.63;;;3.60;;
3068;SDS011;1545;51.728;8.796;2023-09-19T13:29:54;16.07;;;4.23;;
3068;SDS011;1545;51.728;8.796;2023-09-19T13:32:19;8.30;;;3.23;;
3068;SDS011;1545;51.728;8.796;2023-09-19T13:34:45;13.00;;;3.60;;
3068;SDS011;1545;51.728;8.796;2023-09-19T13:37:11;10.90;;;3.60;;
3068;SDS011;1545;51.728;8.796;2023-09-19T13:39:38;20.23;;;3.73;;
3068;SDS011;1545;51.728;8.796;2023-09-19T13:42:07;17.50;;;3.93;;
3068;SDS011;1545;51.728;8.796;2023-09-19T13:44:35;10.10;;;3.73;;
3068;SDS011;1545;51.728;8.796;2023-09-19T13:47:00;7.90;;;3.57;;
3068;SDS011;1545;51.728;8.796;2023-09-19T13:49:27;16.90;;;3.90;;
3068;SDS011;1545;51.728;8.796;2023-09-19T13:51:52;11.40;;;3.33;;
3068;SDS011;1545;51.728;8.796;2023-09-19T13:54:20;14.07;;;3.60;;
3068;SDS011;1545;51.728;8.796;2023-09-19T13:56:45;11.23;;;3.80;;
3068;SDS011;1545;51.728;8.796;2023-09-19T13:59:11;11.70;;;3.60;;
3068;SDS011;1545;51.728;8.796;2023-09-19T14:01:36;11.57;;;3.27;;
3068;SDS011;1545;51.728;8.796;2023-09-19T14:04:02;11.33;;;3.20;;
3068;SDS011;1545;51.728;8.796;2023-09-19T14:06:27;9.03;;;3.73;;
3068;SDS011;1545;51.728;8.796;2023-09-19T14:08:53;9.60;;;3.40;;
3068;SDS011;1545;51.728;8.796;2023-09-19T14:11:18;7.73;;;3.00;;
3068;SDS011;1545;51.728;8.796;2023-09-19T14:13:44;10.57;;;3.60;;
3068;SDS011;1545;51.728;8.796;2023-09-19T14:16:13;8.53;;;3.20;;
3068;SDS011;1545;51.728;8.796;2023-09-19T14:18:38;8.50;;;3.30;;
3068;SDS011;1545;51.728;8.796;2023-09-19T14:21:05;16.43;;;3.93;;
3068;SDS011;1545;51.728;8.796;2023-09-19T14:23:35;7.13;;;3.27;;
3068;SDS011;1545;51.728;8.796;2023-09-19T14:26:01;9.47;;;3.60;;
3068;SDS011;1545;51.728;8.796;2023-09-19T14:28:26;11.17;;;3.70;;
3068;SDS011;1545;51.728;8.796;2023-09-19T14:30:54;10.70;;;3.80;;
3068;SDS011;1545;51.728;8.796;2023-09-19T14:33:19;7.70;;;3.30;;
3068;SDS011;1545;51.728;8.796;2023-09-19T14:35:45;20.47;;;3.50;;
3068;SDS011;1545;51.728;8.796;2023-09-19T14:38:10;12.30;;;3.73;;
3068;SDS011;1545;51.728;8.796;2023-09-19T14:40:35;8.90;;;3.20;;
3068;SDS011;1545;51.728;8.796;2023-09-19T14:43:02;7.33;;;3.10;;
3068;SDS011;1545;51.728;8.796;2023-09-19T14:45:28;11.53;;;3.40;;
3068;SDS011;1545;51.728;8.796;2023-09-19T14:47:56;10.40;;;3.67;;
3068;SDS011;1545;51.728;8.796;2023-09-19T14:50:22;13.20;;;3.30;;
3068;SDS011;1545;51.728;8.796;2023-09-19T14:52:47;17.33;;;3.77;;
3068;SDS011;1545;51.728;8.796;2023-09-19T14:55:15;10.10;;;3.60;;
3068;SDS011;1545;51.728;8.796;2023-09-19T14:57:41;11.47;;;3.53;;
3068;SDS011;1545;51.728;8.796;2023-09-19T15:00:11;11.73;;;3.50;;
3068;SDS011;1545;51.728;8.796;2023-09-19T15:02:38;9.83;;;3.90;;
3068;SDS011;1545;51.728;8.796;2023-09-19T15:05:05;13.20;;;3.60;;
3068;SDS011;1545;51.728;8.796;2023-09-19T15:07:33;14.83;;;3.67;;
3068;SDS011;1545;51.728;8.796;2023-09-19T15:10:01;11.80;;;4.03;;
3068;SDS011;1545;51.728;8.796;2023-09-19T15:12:27;10.60;;;3.67;;
3068;SDS011;1545;51.728;8.796;2023-09-19T15:14:54;8.40;;;3.27;;
3068;SDS011;1545;51.728;8.796;2023-09-19T15:17:19;7.03;;;3.57;;
3068;SDS011;1545;51.728;8.796;2023-09-19T15:19:45;9.13;;;3.40;;
3068;SDS011;1545;51.728;8.796;2023-09-19T15:22:11;20.30;;;4.10;;
3068;SDS011;1545;51.728;8.796;2023-09-19T15:24:37;11.00;;;3.73;;
3068;SDS011;1545;51.728;8.796;2023-09-19T15:27:03;16.37;;;4.00;;
3068;SDS011;1545;51.728;8.796;2023-09-19T15:29:29;14.23;;;3.60;;
3068;SDS011;1545;51.728;8.796;2023-09-19T15:31:55;12.03;;;3.80;;
3068;SDS011;1545;51.728;8.796;2023-09-19T15:34:23;7.93;;;3.23;;
3068;SDS011;1545;51.728;8.796;2023-09-19T15:36:50;11.43;;;3.43;;
3068;SDS011;1545;51.728;8.796;2023-09-19T15:39:16;17.43;;;3.60;;
3068;SDS011;1545;51.728;8.796;2023-09-19T15:41:44;7.17;;;3.30;;
3068;SDS011;1545;51.728;8.796;2023-09-19T15:44:15;14.50;;;3.60;;
3068;SDS011;1545;51.728;8.796;2023-09-19T15:46:44;12.23;;;3.60;;
3068;SDS011;1545;51.728;8.796;2023-09-19T15:49:11;12.00;;;3.70;;
3068;SDS011;1545;51.728;8.796;2023-09-19T15:51:37;12.03;;;3.77;;
3068;SDS011;1545;51.728;8.796;2023-09-19T15:54:09;12.87;;;3.87;;
3068;SDS011;1545;51.728;8.796;2023-09-19T15:56:38;10.07;;;3.37;;
3068;SDS011;1545;51.728;8.796;2023-09-19T15:59:06;10.90;;;3.40;;
3068;SDS011;1545;51.728;8.796;2023-09-19T16:01:31;8.47;;;3.43;;
3068;SDS011;1545;51.728;8.796;2023-09-19T16:03:57;11.03;;;3.10;;
3068;SDS011;1545;51.728;8.796;2023-09-19T16:06:25;5.63;;;3.17;;